createdAt,value
2022-09-23T00:00:08.650Z,35.35
2022-09-23T00:00:38.756Z,35.28
2022-09-23T00:01:09.008Z,35.30
2022-09-23T00:01:39.077Z,35.30
2022-09-23T00:02:09.147Z,35.27
2022-09-23T00:02:39.229Z,35.28
2022-09-23T00:03:09.197Z,35.26
2022-09-23T00:03:39.314Z,35.26
2022-09-23T00:04:09.307Z,35.24
2022-09-23T00:04:39.420Z,35.27
2022-09-23T00:05:09.530Z,35.25
2022-09-23T00:05:39.641Z,35.28
2022-09-23T00:06:09.751Z,35.26
2022-09-23T00:06:39.868Z,35.26
2022-09-23T00:07:09.976Z,35.20
2022-09-23T00:07:40.089Z,35.25
2022-09-23T00:08:10.202Z,35.27
2022-09-23T00:08:40.314Z,35.27
2022-09-23T00:09:10.426Z,35.29
2022-09-23T00:09:40.536Z,35.26
2022-09-23T00:10:10.645Z,35.27
2022-09-23T00:10:40.756Z,35.24
2022-09-23T00:11:10.867Z,35.23
2022-09-23T00:11:40.980Z,35.26
2022-09-23T00:12:11.091Z,35.23
2022-09-23T00:12:41.200Z,35.26
2022-09-23T00:13:11.315Z,35.26
2022-09-23T00:13:41.432Z,35.24
2022-09-23T00:14:11.540Z,35.23
2022-09-23T00:14:41.654Z,35.27
2022-09-23T00:15:11.762Z,35.24
2022-09-23T00:15:41.877Z,35.27
2022-09-23T00:16:11.985Z,35.22
2022-09-23T00:16:42.164Z,35.27
2022-09-23T00:17:12.178Z,35.22
2022-09-23T00:17:42.139Z,35.24
2022-09-23T00:18:12.183Z,35.23
2022-09-23T00:18:42.255Z,35.26
2022-09-23T00:19:12.335Z,35.22
2022-09-23T00:19:42.412Z,35.25
2022-09-23T00:20:12.478Z,35.26
2022-09-23T00:20:42.555Z,35.20
2022-09-23T00:21:12.627Z,35.26
2022-09-23T00:21:42.703Z,35.20
2022-09-23T00:22:12.778Z,35.23
2022-09-23T00:22:42.849Z,35.24
2022-09-23T00:23:12.925Z,35.24
2022-09-23T00:23:43.082Z,35.23
2022-09-23T00:24:12.996Z,35.23
2022-09-23T00:24:43.071Z,35.24
2022-09-23T00:25:13.140Z,35.21
2022-09-23T00:25:43.211Z,35.24
2022-09-23T00:26:13.282Z,35.23
2022-09-23T00:26:43.375Z,35.24
2022-09-23T00:27:13.488Z,35.23
2022-09-23T00:27:43.598Z,35.24
2022-09-23T00:28:13.713Z,35.22
2022-09-23T00:28:43.826Z,35.23
2022-09-23T00:29:13.932Z,35.24
2022-09-23T00:29:44.042Z,35.24
2022-09-23T00:30:14.156Z,35.21
2022-09-23T00:30:44.343Z,35.22
2022-09-23T00:31:14.385Z,35.20
2022-09-23T00:31:44.364Z,35.20
2022-09-23T00:32:14.474Z,35.24
2022-09-23T00:32:44.588Z,35.27
2022-09-23T00:33:14.724Z,35.23
2022-09-23T00:33:44.827Z,35.17
2022-09-23T00:34:14.917Z,35.26
2022-09-23T00:34:45.026Z,35.21
2022-09-23T00:35:15.143Z,35.27
2022-09-23T00:35:45.251Z,35.24
2022-09-23T00:36:15.363Z,35.19
2022-09-23T00:36:45.478Z,35.23
2022-09-23T00:37:15.587Z,35.20
2022-09-23T00:37:45.696Z,35.23
2022-09-23T00:38:15.806Z,35.19
2022-09-23T00:38:45.926Z,35.20
2022-09-23T00:39:15.912Z,35.20
2022-09-23T00:39:46.019Z,35.21
2022-09-23T00:40:16.223Z,35.20
2022-09-23T00:40:46.373Z,35.20
2022-09-23T00:41:16.231Z,35.29
2022-09-23T00:41:46.235Z,35.19
2022-09-23T00:42:16.350Z,35.23
2022-09-23T00:42:46.451Z,35.15
2022-09-23T00:43:16.565Z,35.20
2022-09-23T00:43:46.679Z,35.23
2022-09-23T00:44:16.787Z,35.21
2022-09-23T00:44:46.898Z,35.18
2022-09-23T00:45:17.022Z,35.18
2022-09-23T00:45:47.181Z,35.23
2022-09-23T00:46:17.297Z,35.20
2022-09-23T00:46:47.310Z,35.17
2022-09-23T00:47:17.291Z,35.21
2022-09-23T00:47:47.405Z,35.21
2022-09-23T00:48:17.547Z,35.24
2022-09-23T00:48:47.631Z,35.17
2022-09-23T00:49:17.739Z,35.21
2022-09-23T00:49:47.855Z,35.17
2022-09-23T00:50:17.955Z,35.17
2022-09-23T00:50:48.070Z,35.24
2022-09-23T00:51:18.187Z,35.17
2022-09-23T00:51:48.304Z,35.17
2022-09-23T00:52:18.419Z,35.15
2022-09-23T00:52:48.412Z,35.23
2022-09-23T00:53:18.525Z,35.20
2022-09-23T00:53:48.638Z,35.18
2022-09-23T00:54:18.746Z,35.19
2022-09-23T00:54:48.860Z,35.18
2022-09-23T00:55:18.974Z,35.18
2022-09-23T00:55:49.084Z,35.17
2022-09-23T00:56:19.196Z,35.15
2022-09-23T00:56:49.312Z,35.19
2022-09-23T00:57:19.425Z,35.18
2022-09-23T00:57:49.538Z,35.20
2022-09-23T00:58:19.644Z,35.20
2022-09-23T00:58:49.762Z,35.20
2022-09-23T00:59:19.871Z,35.20
2022-09-23T00:59:49.982Z,35.21
2022-09-23T01:00:20.099Z,35.17
2022-09-23T01:00:50.319Z,35.15
2022-09-23T01:01:20.392Z,35.17
2022-09-23T01:01:50.378Z,35.15
2022-09-23T01:02:20.553Z,35.19
2022-09-23T01:02:50.602Z,35.17
2022-09-23T01:03:20.584Z,35.17
2022-09-23T01:03:50.672Z,35.15
2022-09-23T01:04:20.783Z,35.19
2022-09-23T01:04:50.891Z,35.20
2022-09-23T01:05:21.003Z,35.17
2022-09-23T01:05:51.111Z,35.19
2022-09-23T01:06:21.226Z,35.18
2022-09-23T01:06:51.343Z,35.19
2022-09-23T01:07:21.449Z,35.13
2022-09-23T01:07:51.559Z,35.18
2022-09-23T01:08:21.677Z,35.13
2022-09-23T01:11:45.598Z,35.33
2022-09-23T01:12:54.633Z,35.38
2022-09-23T01:13:24.706Z,35.39
2022-09-23T01:13:54.784Z,35.32
2022-09-23T01:14:24.853Z,35.39
2022-09-23T01:14:54.920Z,35.39
2022-09-23T01:15:24.998Z,35.43
2022-09-23T01:15:55.072Z,35.38
2022-09-23T01:16:25.247Z,35.34
2022-09-23T01:16:55.252Z,35.44
2022-09-23T01:17:25.307Z,35.40
2022-09-23T01:17:55.381Z,35.40
2022-09-23T01:18:25.474Z,35.37
2022-09-23T01:18:55.521Z,35.37
2022-09-23T01:19:25.601Z,35.34
2022-09-23T01:19:55.669Z,35.37
2022-09-23T01:20:25.748Z,35.30
2022-09-23T01:20:55.842Z,35.34
2022-09-23T01:21:25.893Z,35.32
2022-09-23T01:21:55.972Z,35.32
2022-09-23T01:22:26.038Z,35.29
2022-09-23T01:22:56.148Z,35.29
2022-09-23T01:23:26.257Z,35.32
2022-09-23T01:23:56.363Z,35.35
2022-09-23T01:24:26.473Z,35.26
2022-09-23T01:24:56.580Z,35.28
2022-09-23T01:25:26.688Z,35.26
2022-09-23T01:25:56.807Z,35.29
2022-09-23T01:26:26.914Z,35.23
2022-09-23T01:26:57.018Z,35.20
2022-09-23T01:27:27.129Z,35.28
2022-09-23T01:27:57.237Z,35.17
2022-09-23T01:28:27.346Z,35.24
2022-09-23T01:28:57.456Z,35.25
2022-09-23T01:29:27.566Z,35.25
2022-09-23T01:29:57.678Z,35.22
2022-09-23T01:30:27.825Z,35.20
2022-09-23T01:30:57.898Z,35.19
2022-09-23T01:31:27.900Z,35.17
2022-09-23T01:31:58.011Z,35.18
2022-09-23T01:32:28.118Z,35.19
2022-09-23T01:32:58.233Z,35.16
2022-09-23T01:33:28.367Z,35.16
2022-09-23T01:33:58.455Z,35.20
2022-09-23T01:34:28.569Z,35.20
2022-09-23T01:34:58.677Z,35.15
2022-09-23T01:35:28.792Z,35.13
2022-09-23T01:35:58.908Z,35.23
2022-09-23T01:36:29.020Z,35.20
2022-09-23T01:36:59.128Z,35.13
2022-09-23T01:37:29.245Z,35.21
2022-09-23T01:37:59.350Z,35.19
2022-09-23T01:38:29.467Z,35.16
2022-09-23T01:38:59.681Z,35.12
2022-09-23T01:39:29.639Z,35.13
2022-09-23T01:39:59.745Z,35.08
2022-09-23T01:40:29.937Z,35.10
2022-09-23T01:40:59.908Z,35.17
2022-09-23T01:41:30.020Z,35.18
2022-09-23T01:42:00.132Z,35.15
2022-09-23T01:42:30.243Z,35.13
2022-09-23T01:43:00.359Z,35.09
2022-09-23T01:43:30.471Z,35.12
2022-09-23T01:44:00.582Z,35.12
2022-09-23T01:44:30.696Z,35.13
2022-09-23T01:45:00.802Z,35.11
2022-09-23T01:45:30.912Z,35.08
2022-09-23T01:46:01.024Z,35.11
2022-09-23T01:46:31.138Z,35.08
2022-09-23T01:47:01.248Z,35.11
2022-09-23T01:47:31.357Z,35.09
2022-09-23T01:48:01.509Z,35.08
2022-09-23T01:48:31.608Z,35.08
2022-09-23T01:49:01.556Z,35.09
2022-09-23T01:49:31.539Z,35.09
2022-09-23T01:50:01.643Z,35.11
2022-09-23T01:50:31.753Z,35.09
2022-09-23T01:51:01.866Z,35.09
2022-09-23T01:51:31.975Z,35.08
2022-09-23T01:52:02.084Z,35.15
2022-09-23T01:52:32.196Z,35.09
2022-09-23T01:53:02.309Z,35.10
2022-09-23T01:53:32.421Z,35.08
2022-09-23T01:54:02.528Z,35.11
2022-09-23T01:54:32.641Z,35.06
2022-09-23T01:55:02.752Z,35.09
2022-09-23T01:55:32.865Z,35.11
2022-09-23T01:56:02.998Z,35.03
2022-09-23T01:56:32.969Z,35.03
2022-09-23T01:57:03.080Z,35.08
2022-09-23T01:57:33.191Z,35.06
2022-09-23T01:58:03.296Z,35.05
2022-09-23T01:58:33.409Z,35.06
2022-09-23T01:59:03.523Z,35.08
2022-09-23T01:59:33.632Z,35.09
2022-09-23T02:00:03.744Z,35.11
2022-09-23T02:00:33.857Z,35.06
2022-09-23T02:01:04.040Z,35.09
2022-09-23T02:01:34.076Z,35.08
2022-09-23T02:02:04.110Z,35.05
2022-09-23T02:02:34.133Z,35.03
2022-09-23T02:03:04.213Z,35.08
2022-09-23T02:03:34.342Z,35.08
2022-09-23T02:04:04.437Z,35.08
2022-09-23T02:04:34.547Z,35.09
2022-09-23T02:05:04.654Z,35.05
2022-09-23T02:05:34.769Z,35.08
2022-09-23T02:06:04.890Z,35.06
2022-09-23T02:06:34.879Z,35.08
2022-09-23T02:07:04.990Z,35.05
2022-09-23T02:07:35.096Z,35.05
2022-09-23T02:08:05.208Z,35.09
2022-09-23T02:08:35.326Z,35.06
2022-09-23T02:09:05.322Z,35.05
2022-09-23T02:09:35.436Z,35.06
2022-09-23T02:10:05.544Z,35.12
2022-09-23T02:10:35.651Z,35.03
2022-09-23T02:11:05.768Z,35.03
2022-09-23T02:11:35.875Z,35.03
2022-09-23T02:12:05.988Z,35.09
2022-09-23T02:12:36.080Z,35.05
2022-09-23T02:13:06.150Z,35.06
2022-09-23T02:13:36.221Z,35.05
2022-09-23T02:14:06.291Z,35.08
2022-09-23T02:14:36.366Z,35.08
2022-09-23T02:15:06.436Z,35.08
2022-09-23T02:15:36.509Z,35.08
2022-09-23T02:16:06.754Z,35.10
2022-09-23T02:16:36.704Z,35.02
2022-09-23T02:17:06.759Z,35.07
2022-09-23T02:17:36.830Z,35.06
2022-09-23T02:18:06.907Z,35.08
2022-09-23T02:18:36.999Z,35.03
2022-09-23T02:19:07.242Z,35.10
2022-09-23T02:19:37.107Z,35.08
2022-09-23T02:20:07.185Z,35.05
2022-09-23T02:20:37.256Z,35.10
2022-09-23T02:21:07.336Z,35.07
2022-09-23T02:21:37.408Z,35.07
2022-09-23T02:22:07.476Z,35.09
2022-09-23T02:22:37.568Z,35.08
2022-09-23T02:23:07.727Z,35.06
2022-09-23T02:23:37.685Z,35.10
2022-09-23T02:24:07.798Z,35.06
2022-09-23T02:24:37.908Z,35.04
2022-09-23T02:25:08.017Z,35.09
2022-09-23T02:25:38.127Z,35.03
2022-09-23T02:26:08.240Z,35.04
2022-09-23T02:26:38.351Z,35.03
2022-09-23T02:27:08.458Z,35.07
2022-09-23T02:27:38.566Z,35.10
2022-09-23T02:28:08.683Z,35.01
2022-09-23T02:28:38.789Z,35.08
2022-09-23T02:29:08.903Z,35.06
2022-09-23T02:29:39.016Z,35.09
2022-09-23T02:30:09.125Z,35.07
2022-09-23T02:30:39.234Z,35.05
2022-09-23T02:31:09.376Z,35.08
2022-09-23T02:31:39.417Z,35.04
2022-09-23T02:32:09.470Z,35.07
2022-09-23T02:32:39.448Z,35.06
2022-09-23T02:33:09.562Z,35.07
2022-09-23T02:33:39.673Z,35.06
2022-09-23T02:34:09.811Z,35.07
2022-09-23T02:34:39.899Z,35.07
2022-09-23T02:35:10.005Z,35.06
2022-09-23T02:35:40.122Z,35.07
2022-09-23T02:36:10.236Z,35.04
2022-09-23T02:36:40.220Z,35.07
2022-09-23T02:37:10.333Z,35.07
2022-09-23T02:37:40.443Z,35.01
2022-09-23T02:38:10.550Z,35.05
2022-09-23T02:38:40.662Z,35.04
2022-09-23T02:39:10.772Z,35.05
2022-09-23T02:39:40.887Z,35.06
2022-09-23T02:40:11.035Z,35.06
2022-09-23T02:40:41.059Z,35.04
2022-09-23T02:41:11.151Z,35.05
2022-09-23T02:41:41.266Z,35.06
2022-09-23T02:42:11.380Z,35.03
2022-09-23T02:42:41.492Z,35.01
2022-09-23T02:43:11.603Z,35.04
2022-09-23T02:43:41.712Z,35.04
2022-09-23T02:44:11.834Z,35.07
2022-09-23T02:44:41.938Z,35.06
2022-09-23T02:45:12.043Z,35.05
2022-09-23T02:45:42.247Z,35.00
2022-09-23T02:46:12.430Z,35.03
2022-09-23T02:46:42.285Z,35.03
2022-09-23T02:47:12.392Z,35.06
2022-09-23T02:47:42.501Z,35.08
2022-09-23T02:48:12.612Z,35.08
2022-09-23T02:48:42.717Z,35.03
2022-09-23T02:49:12.848Z,35.10
2022-09-23T02:49:42.938Z,35.03
2022-09-23T02:50:13.050Z,35.07
2022-09-23T02:50:43.162Z,35.03
2022-09-23T02:51:13.335Z,35.04
2022-09-23T02:51:43.318Z,35.08
2022-09-23T02:52:13.431Z,35.03
2022-09-23T02:52:43.545Z,35.03
2022-09-23T02:53:13.660Z,35.04
2022-09-23T02:53:43.773Z,35.03
2022-09-23T02:54:13.885Z,35.04
2022-09-23T02:54:44.000Z,35.03
2022-09-23T02:55:14.106Z,35.06
2022-09-23T02:55:44.215Z,35.05
2022-09-23T02:56:14.382Z,35.04
2022-09-23T02:56:44.366Z,35.01
2022-09-23T02:57:14.479Z,35.04
2022-09-23T02:57:44.587Z,35.05
2022-09-23T02:58:14.702Z,35.00
2022-09-23T02:58:44.810Z,35.04
2022-09-23T02:59:14.915Z,35.00
2022-09-23T02:59:45.031Z,35.07
2022-09-23T03:00:15.139Z,35.04
2022-09-23T03:00:45.325Z,35.01
2022-09-23T03:01:15.377Z,35.05
2022-09-23T03:01:45.360Z,35.03
2022-09-23T03:02:15.516Z,35.01
2022-09-23T03:02:45.488Z,35.01
2022-09-23T03:03:15.600Z,35.04
2022-09-23T03:03:45.709Z,35.03
2022-09-23T03:04:15.845Z,35.01
2022-09-23T03:04:45.928Z,35.01
2022-09-23T03:05:16.043Z,35.00
2022-09-23T03:05:46.149Z,35.03
2022-09-23T03:06:16.268Z,35.01
2022-09-23T03:06:46.393Z,35.02
2022-09-23T03:07:16.491Z,35.01
2022-09-23T03:07:46.605Z,35.05
2022-09-23T03:08:16.716Z,35.01
2022-09-23T03:08:46.826Z,35.01
2022-09-23T03:09:16.935Z,35.08
2022-09-23T03:09:47.039Z,34.98
2022-09-23T03:10:17.158Z,35.05
2022-09-23T03:10:47.270Z,35.02
2022-09-23T03:11:17.393Z,35.04
2022-09-23T03:11:47.385Z,35.04
2022-09-23T03:12:17.499Z,35.03
2022-09-23T03:12:47.579Z,34.99
2022-09-23T03:13:17.652Z,35.01
2022-09-23T03:13:47.724Z,35.01
2022-09-23T03:14:17.971Z,34.98
2022-09-23T03:14:47.895Z,35.01
2022-09-23T03:15:17.970Z,35.03
2022-09-23T03:15:48.041Z,34.98
2022-09-23T03:16:18.215Z,34.98
2022-09-23T03:16:48.249Z,35.01
2022-09-23T03:17:18.182Z,34.99
2022-09-23T03:17:48.261Z,35.01
2022-09-23T03:18:18.331Z,35.03
2022-09-23T03:18:48.403Z,34.98
2022-09-23T03:19:18.505Z,35.04
2022-09-23T03:19:48.556Z,35.04
2022-09-23T03:20:18.626Z,35.04
2022-09-23T03:20:48.700Z,35.01
2022-09-23T03:21:18.781Z,35.01
2022-09-23T03:21:48.874Z,35.00
2022-09-23T03:22:18.935Z,34.99
2022-09-23T03:22:49.043Z,35.05
2022-09-23T03:23:19.159Z,34.98
2022-09-23T03:23:49.263Z,34.99
2022-09-23T03:24:19.379Z,35.01
2022-09-23T03:24:53.756Z,34.98
2022-09-23T03:25:19.507Z,35.02
2022-09-23T03:25:49.621Z,34.96
2022-09-23T03:26:19.744Z,35.01
2022-09-23T03:26:49.727Z,34.99
2022-09-23T03:27:19.839Z,35.07
2022-09-23T03:27:49.949Z,35.01
2022-09-23T03:28:20.061Z,34.98
2022-09-23T03:28:50.171Z,34.99
2022-09-23T03:29:20.285Z,35.05
2022-09-23T03:29:50.401Z,35.01
2022-09-23T03:30:20.510Z,35.00
2022-09-23T03:30:50.619Z,35.05
2022-09-23T03:31:20.820Z,34.99
2022-09-23T03:31:50.889Z,34.95
2022-09-23T03:32:20.889Z,35.01
2022-09-23T03:32:51.001Z,34.97
2022-09-23T03:33:21.113Z,34.97
2022-09-23T03:33:51.227Z,34.97
2022-09-23T03:34:21.364Z,34.94
2022-09-23T03:34:51.456Z,34.95
2022-09-23T03:35:21.562Z,34.98
2022-09-23T03:35:51.673Z,34.95
2022-09-23T03:36:21.791Z,34.94
2022-09-23T03:36:51.899Z,34.92
2022-09-23T03:37:22.012Z,34.97
2022-09-23T03:37:52.124Z,34.98
2022-09-23T03:38:22.235Z,34.95
2022-09-23T03:38:52.349Z,34.95
2022-09-23T03:39:22.481Z,35.01
2022-09-23T03:39:52.575Z,34.95
2022-09-23T03:40:22.763Z,34.94
2022-09-23T03:40:52.892Z,34.91
2022-09-23T03:41:22.770Z,34.98
2022-09-23T03:41:52.875Z,34.92
2022-09-23T03:42:22.982Z,34.92
2022-09-23T03:42:53.088Z,34.98
2022-09-23T03:43:23.199Z,34.92
2022-09-23T03:43:53.314Z,34.90
2022-09-23T03:44:23.429Z,34.92
2022-09-23T03:44:53.534Z,34.91
2022-09-23T03:45:23.727Z,34.90
2022-09-23T03:45:53.727Z,34.95
2022-09-23T03:46:23.767Z,34.88
2022-09-23T03:46:53.878Z,34.90
2022-09-23T03:47:23.984Z,34.92
2022-09-23T03:47:54.099Z,34.90
2022-09-23T03:48:24.209Z,34.91
2022-09-23T03:48:54.313Z,34.91
2022-09-23T03:49:24.452Z,34.89
2022-09-23T03:49:54.536Z,34.86
2022-09-23T03:50:24.648Z,34.97
2022-09-23T03:50:54.764Z,34.91
2022-09-23T03:51:24.871Z,34.91
2022-09-23T03:51:54.980Z,34.91
2022-09-23T03:52:25.094Z,34.88
2022-09-23T03:52:55.202Z,34.95
2022-09-23T03:53:25.315Z,34.94
2022-09-23T03:53:55.422Z,34.94
2022-09-23T03:54:25.534Z,34.89
2022-09-23T03:54:55.644Z,34.88
2022-09-23T03:55:25.756Z,34.84
2022-09-23T03:55:55.874Z,34.87
2022-09-23T03:56:25.992Z,34.89
2022-09-23T03:56:56.098Z,34.90
2022-09-23T03:57:26.210Z,34.95
2022-09-23T03:57:56.322Z,34.93
2022-09-23T03:58:26.440Z,34.92
2022-09-23T03:58:56.552Z,34.89
2022-09-23T03:59:26.660Z,34.95
2022-09-23T03:59:56.773Z,34.95
2022-09-23T04:00:26.890Z,34.96
2022-09-23T04:00:57.049Z,34.92
2022-09-23T04:01:27.120Z,34.97
2022-09-23T04:01:57.180Z,34.97
2022-09-23T04:02:27.207Z,34.93
2022-09-23T04:02:57.196Z,34.96
2022-09-23T04:03:27.307Z,34.99
2022-09-23T04:03:57.422Z,35.05
2022-09-23T04:04:27.556Z,35.02
2022-09-23T04:04:57.639Z,35.06
2022-09-23T04:05:27.756Z,34.99
2022-09-23T04:05:57.865Z,35.02
2022-09-23T04:06:27.974Z,35.05
2022-09-23T04:06:58.088Z,35.02
2022-09-23T04:07:28.198Z,35.09
2022-09-23T04:07:58.318Z,35.06
2022-09-23T04:08:28.431Z,35.07
2022-09-23T04:08:58.538Z,34.99
2022-09-23T04:09:28.654Z,35.07
2022-09-23T04:09:58.767Z,35.07
2022-09-23T04:10:28.876Z,35.01
2022-09-23T04:10:58.888Z,35.02
2022-09-23T04:11:28.872Z,34.99
2022-09-23T04:11:58.979Z,34.98
2022-09-23T04:12:29.087Z,35.01
2022-09-23T04:12:59.157Z,35.00
2022-09-23T04:13:29.240Z,35.01
2022-09-23T04:13:59.303Z,34.99
2022-09-23T04:14:29.384Z,34.97
2022-09-23T04:14:59.449Z,35.02
2022-09-23T04:15:29.528Z,35.02
2022-09-23T04:15:59.653Z,35.00
2022-09-23T04:16:29.681Z,35.00
2022-09-23T04:16:59.610Z,34.99
2022-09-23T04:17:29.685Z,34.94
2022-09-23T04:17:59.751Z,34.95
2022-09-23T04:18:29.827Z,35.01
2022-09-23T04:18:59.937Z,34.98
2022-09-23T04:19:30.008Z,34.95
2022-09-23T04:20:00.068Z,34.99
2022-09-23T04:20:30.128Z,34.92
2022-09-23T04:21:00.204Z,34.95
2022-09-23T04:21:30.305Z,34.94
2022-09-23T04:22:00.375Z,34.94
2022-09-23T04:22:30.461Z,34.95
2022-09-23T04:23:00.570Z,34.96
2022-09-23T04:23:30.685Z,34.94
2022-09-23T04:24:00.802Z,34.92
2022-09-23T04:24:30.911Z,34.91
2022-09-23T04:25:01.026Z,34.97
2022-09-23T04:25:31.141Z,34.92
2022-09-23T04:26:01.251Z,35.01
2022-09-23T04:26:31.387Z,34.92
2022-09-23T04:27:01.372Z,34.95
2022-09-23T04:27:36.875Z,34.96
2022-09-23T04:28:01.493Z,34.99
2022-09-23T04:28:31.601Z,34.95
2022-09-23T04:29:01.769Z,34.96
2022-09-23T04:29:31.764Z,34.90
2022-09-23T04:30:01.878Z,35.05
2022-09-23T04:30:31.992Z,35.05
2022-09-23T04:31:02.162Z,34.96
2022-09-23T04:31:32.232Z,35.08
2022-09-23T04:32:02.205Z,35.14
2022-09-23T04:32:32.336Z,35.16
2022-09-23T04:33:02.317Z,35.09
2022-09-23T04:33:32.420Z,35.24
2022-09-23T04:34:02.538Z,35.22
2022-09-23T04:34:32.645Z,35.32
2022-09-23T04:35:02.853Z,35.31
2022-09-23T04:35:35.650Z,35.31
2022-09-23T04:36:02.811Z,35.34
2022-09-23T04:36:32.940Z,35.27
2022-09-23T04:37:02.929Z,35.18
2022-09-23T04:37:33.049Z,35.60
2022-09-23T04:38:03.147Z,35.49
2022-09-23T04:38:33.295Z,35.51
2022-09-23T04:39:03.368Z,35.49
2022-09-23T04:39:33.365Z,35.47
2022-09-23T04:40:03.472Z,35.46
2022-09-23T04:40:33.568Z,35.42
2022-09-23T04:41:03.480Z,35.39
2022-09-23T04:41:33.606Z,35.46
2022-09-23T04:42:03.714Z,35.55
2022-09-23T04:42:33.830Z,35.50
2022-09-23T04:43:03.936Z,35.49
2022-09-23T04:43:34.054Z,35.50
2022-09-23T04:44:04.159Z,35.50
2022-09-23T04:44:34.272Z,35.49
2022-09-23T04:45:04.379Z,35.53
2022-09-23T04:45:34.495Z,35.51
2022-09-23T04:46:04.610Z,35.45
2022-09-23T04:46:34.765Z,35.46
2022-09-23T04:47:04.782Z,35.49
2022-09-23T04:47:34.750Z,35.46
2022-09-23T04:48:04.738Z,35.42
2022-09-23T04:48:34.848Z,35.44
2022-09-23T04:49:04.968Z,35.43
2022-09-23T04:49:35.071Z,35.39
2022-09-23T04:50:05.205Z,35.39
2022-09-23T04:50:35.289Z,35.40
2022-09-23T04:51:05.403Z,35.38
2022-09-23T04:51:35.593Z,35.37
2022-09-23T04:52:05.576Z,35.38
2022-09-23T04:52:35.687Z,35.35
2022-09-23T04:53:05.792Z,35.35
2022-09-23T04:53:35.902Z,35.36
2022-09-23T04:54:06.014Z,35.36
2022-09-23T04:54:36.119Z,35.36
2022-09-23T04:55:10.966Z,35.33
2022-09-23T04:55:36.237Z,35.29
2022-09-23T04:56:06.346Z,35.36
2022-09-23T04:56:36.456Z,35.32
2022-09-23T04:57:06.576Z,35.32
2022-09-23T04:57:36.678Z,35.32
2022-09-23T04:58:06.789Z,35.35
2022-09-23T04:58:36.898Z,35.23
2022-09-23T04:59:07.200Z,35.28
2022-09-23T04:59:37.121Z,35.35
2022-09-23T05:00:07.244Z,35.30
2022-09-23T05:00:37.398Z,35.27
2022-09-23T05:01:07.439Z,35.29
2022-09-23T05:01:37.574Z,35.28
2022-09-23T05:02:07.589Z,35.23
2022-09-23T05:02:37.613Z,35.20
2022-09-23T05:03:07.577Z,35.20
2022-09-23T05:03:37.684Z,35.20
2022-09-23T05:04:07.804Z,35.17
2022-09-23T05:04:37.909Z,35.14
2022-09-23T05:05:08.039Z,35.17
2022-09-23T05:05:38.129Z,35.05
2022-09-23T05:06:08.239Z,35.10
2022-09-23T05:06:38.361Z,34.94
2022-09-23T05:07:08.471Z,34.95
2022-09-23T05:07:38.576Z,34.89
2022-09-23T05:08:08.695Z,34.86
2022-09-23T05:08:38.797Z,34.90
2022-09-23T05:09:09.103Z,34.91
2022-09-23T05:09:38.907Z,34.84
2022-09-23T05:10:09.020Z,34.76
2022-09-23T05:10:39.131Z,34.79
2022-09-23T05:11:09.247Z,34.66
2022-09-23T05:11:39.352Z,34.75
2022-09-23T05:12:09.467Z,34.70
2022-09-23T05:12:39.556Z,34.62
2022-09-23T05:13:09.626Z,34.59
2022-09-23T05:13:39.702Z,34.58
2022-09-23T05:14:09.776Z,34.59
2022-09-23T05:14:39.844Z,34.63
2022-09-23T05:15:09.919Z,34.68
2022-09-23T05:15:39.990Z,34.50
2022-09-23T05:16:10.157Z,34.62
2022-09-23T05:16:40.135Z,34.62
2022-09-23T05:17:10.211Z,34.64
2022-09-23T05:17:40.283Z,34.67
2022-09-23T05:18:10.352Z,34.64
2022-09-23T05:18:40.426Z,34.68
2022-09-23T05:19:10.533Z,34.63
2022-09-23T05:19:40.608Z,34.59
2022-09-23T05:20:10.704Z,34.50
2022-09-23T05:20:40.763Z,34.50
2022-09-23T05:21:10.838Z,34.51
2022-09-23T05:21:41.125Z,34.46
2022-09-23T05:22:10.944Z,34.51
2022-09-23T05:22:41.043Z,34.55
2022-09-23T05:23:11.153Z,34.44
2022-09-23T05:23:41.270Z,34.35
2022-09-23T05:24:11.381Z,34.41
2022-09-23T05:24:41.496Z,34.38
2022-09-23T05:25:11.609Z,34.37
2022-09-23T05:25:41.720Z,34.39
2022-09-23T05:26:11.829Z,34.33
2022-09-23T05:26:41.945Z,34.32
2022-09-23T05:27:12.055Z,34.26
2022-09-23T05:27:42.161Z,34.22
2022-09-23T05:28:12.272Z,34.22
2022-09-23T05:28:42.378Z,34.17
2022-09-23T05:29:12.489Z,34.16
2022-09-23T05:29:42.599Z,34.07
2022-09-23T05:30:12.714Z,34.12
2022-09-23T05:30:42.819Z,34.02
2022-09-23T05:31:18.705Z,34.02
2022-09-23T05:31:43.019Z,33.99
2022-09-23T05:32:13.016Z,33.96
2022-09-23T05:32:43.119Z,33.94
2022-09-23T05:33:13.228Z,33.88
2022-09-23T05:33:43.336Z,33.85
2022-09-23T05:34:13.449Z,33.87
2022-09-23T05:34:43.558Z,33.82
2022-09-23T05:35:13.696Z,33.75
2022-09-23T05:35:43.783Z,33.70
2022-09-23T05:36:13.897Z,33.70
2022-09-23T05:36:44.173Z,33.70
2022-09-23T05:37:14.032Z,33.65
2022-09-23T05:37:44.145Z,33.67
2022-09-23T05:38:14.250Z,33.65
2022-09-23T05:38:44.362Z,33.64
2022-09-23T05:39:14.476Z,33.61
2022-09-23T05:39:44.584Z,33.53
2022-09-23T05:40:14.757Z,33.51
2022-09-23T05:40:44.817Z,33.53
2022-09-23T05:41:14.789Z,33.50
2022-09-23T05:41:44.933Z,33.48
2022-09-23T05:42:15.016Z,33.45
2022-09-23T05:42:45.008Z,33.42
2022-09-23T05:43:15.124Z,33.29
2022-09-23T05:43:45.231Z,33.07
2022-09-23T05:44:15.340Z,33.41
2022-09-23T05:44:45.447Z,33.36
2022-09-23T05:45:15.562Z,33.47
2022-09-23T05:45:45.673Z,33.54
2022-09-23T05:46:15.842Z,33.56
2022-09-23T05:46:45.927Z,33.52
2022-09-23T05:47:15.887Z,33.52
2022-09-23T05:47:45.996Z,33.55
2022-09-23T05:48:16.110Z,33.70
2022-09-23T05:48:46.219Z,33.97
2022-09-23T05:49:16.334Z,33.62
2022-09-23T05:49:59.181Z,33.94
2022-09-23T05:50:16.456Z,33.96
2022-09-23T05:50:46.598Z,33.99
2022-09-23T05:51:16.671Z,34.04
2022-09-23T05:51:46.785Z,34.01
2022-09-23T05:52:16.784Z,34.01
2022-09-23T05:52:46.893Z,33.99
2022-09-23T05:53:17.006Z,33.99
2022-09-23T05:53:47.113Z,33.98
2022-09-23T05:54:17.222Z,33.93
2022-09-23T05:54:47.332Z,33.93
2022-09-23T05:55:17.435Z,33.93
2022-09-23T05:55:47.543Z,33.95
2022-09-23T05:56:17.667Z,33.90
2022-09-23T05:56:47.766Z,33.91
2022-09-23T05:57:17.873Z,33.91
2022-09-23T05:57:47.986Z,33.80
2022-09-23T05:58:18.093Z,33.81
2022-09-23T05:58:48.209Z,33.85
2022-09-23T05:59:18.317Z,33.77
2022-09-23T05:59:48.430Z,33.75
2022-09-23T06:00:18.556Z,33.70
2022-09-23T06:00:48.649Z,33.69
2022-09-23T06:01:18.862Z,33.71
2022-09-23T06:01:51.998Z,33.71
2022-09-23T06:02:18.961Z,33.68
2022-09-23T06:02:49.063Z,33.56
2022-09-23T06:03:19.023Z,33.66
2022-09-23T06:03:49.022Z,33.54
2022-09-23T06:04:19.108Z,33.55
2022-09-23T06:04:49.217Z,33.58
2022-09-23T06:05:19.331Z,33.55
2022-09-23T06:05:49.462Z,33.54
2022-09-23T06:06:19.554Z,33.53
2022-09-23T06:06:49.670Z,33.48
2022-09-23T06:07:19.787Z,33.40
2022-09-23T06:07:49.787Z,33.46
2022-09-23T06:08:19.899Z,33.44
2022-09-23T06:08:50.008Z,33.46
2022-09-23T06:09:20.120Z,33.40
2022-09-23T06:09:50.229Z,33.38
2022-09-23T06:10:20.340Z,33.37
2022-09-23T06:10:54.425Z,33.38
2022-09-23T06:11:20.488Z,33.35
2022-09-23T06:11:50.603Z,33.30
2022-09-23T06:12:20.719Z,33.35
2022-09-23T06:12:50.795Z,33.29
2022-09-23T06:13:20.860Z,33.29
2022-09-23T06:13:50.934Z,33.26
2022-09-23T06:14:21.002Z,33.27
2022-09-23T06:14:51.073Z,33.14
2022-09-23T06:15:21.143Z,33.32
2022-09-23T06:15:51.253Z,33.32
2022-09-23T06:16:21.334Z,33.29
2022-09-23T06:16:51.378Z,33.38
2022-09-23T06:17:21.455Z,33.29
2022-09-23T06:17:51.527Z,33.32
2022-09-23T06:18:21.602Z,33.41
2022-09-23T06:18:51.678Z,33.34
2022-09-23T06:19:21.744Z,33.37
2022-09-23T06:19:51.816Z,33.45
2022-09-23T06:20:21.889Z,33.34
2022-09-23T06:20:51.984Z,33.30
2022-09-23T06:21:22.039Z,33.35
2022-09-23T06:21:52.106Z,33.38
2022-09-23T06:22:22.183Z,33.34
2022-09-23T06:22:55.231Z,33.35
2022-09-23T06:23:25.960Z,33.39
2022-09-23T06:23:55.452Z,33.35
2022-09-23T06:24:27.241Z,33.37
2022-09-23T06:24:52.360Z,33.38
2022-09-23T06:25:22.480Z,33.35
2022-09-23T06:25:52.590Z,33.28
2022-09-23T06:26:22.704Z,33.44
2022-09-23T06:26:52.813Z,33.50
2022-09-23T06:27:22.928Z,33.46
2022-09-23T06:27:53.038Z,33.52
2022-09-23T06:28:23.152Z,33.54
2022-09-23T06:28:53.267Z,33.47
2022-09-23T06:29:23.380Z,33.52
2022-09-23T06:29:53.484Z,33.49
2022-09-23T06:30:23.602Z,33.46
2022-09-23T06:30:53.768Z,33.52